Time;durP1;ratioP1;P1;durP2;ratioP2;P2;SDS_P1;SDS_P2;PMS_P1;PMS_P2;Temp;Humidity;BMP_temperature;BMP_pressure;BME280_temperature;BME280_humidity;BME280_pressure;Samples;Min_cycle;Max_cycle;Signal;HPM_P1;HPM_P2
2021/06/21 00:00:24;;;;;;;1999.90;999.90;;;17.70;99.90;;;;;;5036305;28;20249;-78
2021/06/21 00:02:50;;;;;;;1999.90;999.90;;;17.70;99.90;;;;;;5037841;28;20586;-78
2021/06/21 00:05:17;;;;;;;1999.90;999.90;;;17.80;99.90;;;;;;5055974;28;20267;-78
2021/06/21 00:07:43;;;;;;;1999.90;999.90;;;17.90;99.90;;;;;;5057338;28;20182;-78
2021/06/21 00:10:12;;;;;;;1999.90;999.90;;;17.70;99.90;;;;;;5059348;28;20180;-78
2021/06/21 00:12:40;;;;;;;1999.90;999.90;;;17.50;99.90;;;;;;5058659;28;20218;-78
2021/06/21 00:15:08;;;;;;;1999.90;999.90;;;17.30;99.90;;;;;;5058775;28;20193;-78
2021/06/21 00:17:34;;;;;;;1999.90;999.90;;;17.30;99.90;;;;;;5058932;28;20259;-78
2021/06/21 00:19:59;;;;;;;1999.90;999.90;;;17.40;99.90;;;;;;5059125;28;20267;-77
2021/06/21 00:22:25;;;;;;;1999.90;999.90;;;17.40;99.90;;;;;;5058371;28;20313;-78
2021/06/21 00:24:51;;;;;;;1999.90;999.90;;;17.50;99.90;;;;;;5040597;28;20184;-78
2021/06/21 00:27:16;;;;;;;1999.90;999.90;;;17.60;99.90;;;;;;5057387;28;20231;-78
2021/06/21 00:29:42;;;;;;;1999.90;999.90;;;17.60;99.90;;;;;;5058810;28;20184;-78
2021/06/21 00:32:09;;;;;;;1999.90;999.90;;;17.60;99.90;;;;;;5058934;28;20730;-78
2021/06/21 00:34:35;;;;;;;1999.90;999.90;;;17.60;99.90;;;;;;5059299;28;20231;-78
2021/06/21 00:37:00;;;;;;;1999.90;999.90;;;17.50;99.90;;;;;;5059881;28;20184;-78
2021/06/21 00:39:26;;;;;;;1999.90;999.90;;;17.40;99.90;;;;;;5060240;28;20181;-77
2021/06/21 00:41:52;;;;;;;1999.90;999.90;;;17.20;99.90;;;;;;5059830;28;20208;-77
2021/06/21 00:44:17;;;;;;;1999.90;999.90;;;17.30;99.90;;;;;;5059653;28;20188;-77
2021/06/21 00:46:43;;;;;;;1999.90;999.90;;;17.30;99.90;;;;;;5060364;28;20173;-78
2021/06/21 00:49:09;;;;;;;1999.90;999.90;;;17.40;99.90;;;;;;5060047;28;20173;-78
2021/06/21 00:51:35;;;;;;;1999.90;999.90;;;17.40;99.90;;;;;;5042119;28;20201;-78
2021/06/21 00:54:01;;;;;;;1999.90;999.90;;;17.30;99.90;;;;;;5060533;28;20176;-77
2021/06/21 00:56:27;;;;;;;1999.90;999.90;;;17.20;99.90;;;;;;5060017;28;20176;-78
2021/06/21 00:59:00;;;;;;;1999.90;999.90;;;17.30;99.90;;;;;;5060597;28;20615;-77
2021/06/21 01:01:25;;;;;;;1999.90;999.90;;;17.30;99.90;;;;;;5059506;28;20209;-78
2021/06/21 01:03:51;;;;;;;1999.90;999.90;;;17.40;99.90;;;;;;5060584;28;20170;-78
2021/06/21 01:06:17;;;;;;;1999.90;999.90;;;17.40;99.90;;;;;;5043270;28;20189;-77
2021/06/21 01:08:42;;;;;;;1999.90;999.90;;;17.50;99.90;;;;;;5060514;28;20674;-78
2021/06/21 01:11:09;;;;;;;1999.90;999.90;;;17.50;99.90;;;;;;5060345;28;20198;-78
2021/06/21 01:14:07;;;;;;;1999.90;999.90;;;17.50;99.90;;;;;;5059708;28;20547;-77
2021/06/21 01:16:44;;;;;;;1999.90;999.90;;;17.50;99.90;;;;;;5059827;28;20267;-78
2021/06/21 01:19:40;;;;;;;1999.90;999.90;;;17.10;99.90;;;;;;5058907;28;20173;-77
2021/06/21 01:22:37;;;;;;;1999.90;999.90;;;17.10;99.90;;;;;;5072287;22;20232;-78
2021/06/21 01:25:25;;;;;;;1999.90;999.90;;;17.10;99.90;;;;;;5096325;28;20190;-75
2021/06/21 01:28:30;;;;;;;1999.90;999.90;;;17.00;99.90;;;;;;5078968;28;20171;-77
2021/06/21 01:31:06;;;;;;;1999.90;999.90;;;17.00;99.90;;;;;;5096549;28;20167;-77
2021/06/21 01:33:34;;;;;;;1999.90;999.90;;;17.10;99.90;;;;;;5073618;28;20720;-77
2021/06/21 01:36:02;;;;;;;1999.90;999.90;;;17.20;99.90;;;;;;5058842;28;20260;-77
2021/06/21 01:38:35;;;;;;;1999.90;999.90;;;17.30;99.90;;;;;;5076829;28;20180;-77
2021/06/21 01:41:05;;;;;;;1999.90;999.90;;;17.20;99.90;;;;;;5076712;28;20169;-77
2021/06/21 01:43:35;;;;;;;1999.90;999.90;;;17.20;99.90;;;;;;5076460;28;20204;-77
2021/06/21 01:46:05;;;;;;;1999.90;999.90;;;17.00;99.90;;;;;;5058123;28;20180;-77
2021/06/21 01:48:32;;;;;;;1999.90;999.90;;;17.00;99.90;;;;;;5058097;28;20651;-77
2021/06/21 01:51:00;;;;;;;1999.90;999.90;;;17.10;99.90;;;;;;5076174;28;20689;-77
2021/06/21 01:53:31;;;;;;;1999.90;999.90;;;17.10;99.90;;;;;;5075831;28;20204;-77
2021/06/21 01:56:00;;;;;;;1999.90;999.90;;;17.10;99.90;;;;;;5058464;28;20175;-77
2021/06/21 01:58:27;;;;;;;1999.90;999.90;;;16.90;99.90;;;;;;5075655;28;20177;-77
2021/06/21 02:00:53;;;;;;;1999.90;999.90;;;17.00;99.90;;;;;;5058438;28;20264;-76
2021/06/21 02:03:25;;;;;;;1999.90;999.90;;;17.10;99.90;;;;;;5075785;28;20287;-75
2021/06/21 02:05:53;;;;;;;1999.90;999.90;;;17.00;99.90;;;;;;5075795;28;20172;-77
2021/06/21 02:08:21;;;;;;;1999.90;999.90;;;17.10;99.90;;;;;;5074519;28;20171;-77
2021/06/21 02:10:52;;;;;;;1999.90;999.90;;;17.10;99.90;;;;;;5072021;28;20258;-77
2021/06/21 02:13:20;;;;;;;1999.90;999.90;;;17.20;99.90;;;;;;5069888;28;20204;-78
2021/06/21 02:15:47;;;;;;;1999.90;999.90;;;17.30;99.90;;;;;;5055903;28;20171;-77
2021/06/21 02:18:16;;;;;;;1999.90;999.90;;;17.40;99.90;;;;;;5074553;28;20699;-77
2021/06/21 02:20:43;;;;;;;1999.90;999.90;;;17.20;99.90;;;;;;5075759;28;20173;-77
2021/06/21 02:23:09;;;;;;;1999.90;999.90;;;17.30;99.90;;;;;;5075259;28;20215;-77
2021/06/21 02:25:35;;;;;;;1999.90;999.90;;;17.20;99.90;;;;;;5074789;28;20700;-77
2021/06/21 02:28:03;;;;;;;1999.90;999.90;;;17.30;99.90;;;;;;5076133;28;20180;-77
2021/06/21 02:30:29;;;;;;;1999.90;999.90;;;17.00;99.90;;;;;;5075135;28;20176;-77
2021/06/21 02:32:55;;;;;;;1999.90;999.90;;;17.10;99.90;;;;;;5075028;28;20749;-77
2021/06/21 02:35:21;;;;;;;1999.90;999.90;;;17.00;99.90;;;;;;5058764;28;20176;-77
2021/06/21 02:37:46;;;;;;;1999.90;999.90;;;17.00;99.90;;;;;;5057316;28;20616;-77
2021/06/21 02:40:14;;;;;;;1999.90;999.90;;;17.20;99.90;;;;;;5075744;28;20674;-77
2021/06/21 02:42:41;;;;;;;1999.90;999.90;;;17.10;99.90;;;;;;5075059;28;20208;-77
2021/06/21 02:45:08;;;;;;;1999.90;999.90;;;17.10;99.90;;;;;;5075114;28;20228;-77
2021/06/21 02:47:35;;;;;;;1999.90;999.90;;;17.10;99.90;;;;;;5075052;28;20250;-77
2021/06/21 02:50:01;;;;;;;1999.90;999.90;;;17.10;99.90;;;;;;5075036;28;20269;-78
2021/06/21 02:52:58;;;;;;;1999.90;999.90;;;17.30;99.90;;;;;;5075119;28;20688;-77
2021/06/21 02:55:35;;;;;;;1999.90;999.90;;;17.30;99.90;;;;;;5057263;28;20176;-77
2021/06/21 02:58:17;;;;;;;1999.90;999.90;;;17.50;99.90;;;;;;5075129;28;20180;-77
2021/06/21 03:00:44;;;;;;;1999.90;999.90;;;17.50;99.90;;;;;;5057326;28;20648;-77
2021/06/21 03:03:10;;;;;;;1999.90;999.90;;;17.60;99.90;;;;;;5057296;28;20294;-77
2021/06/21 03:05:41;;;;;;;1999.90;999.90;;;17.60;99.90;;;;;;5075057;28;20544;-77
2021/06/21 03:08:11;;;;;;;1999.90;999.90;;;17.50;99.90;;;;;;5075585;28;20252;-77
2021/06/21 03:10:38;;;;;;;1999.90;999.90;;;17.50;99.90;;;;;;5057505;28;20219;-77
2021/06/21 03:13:05;;;;;;;1999.90;999.90;;;17.50;99.90;;;;;;5057617;28;20562;-78
2021/06/21 03:15:32;;;;;;;1999.90;999.90;;;17.50;99.90;;;;;;5074990;28;20259;-78
2021/06/21 03:17:59;;;;;;;1999.90;999.90;;;17.60;99.90;;;;;;5075016;28;20180;-77
2021/06/21 03:20:24;;;;;;;1999.90;999.90;;;17.60;99.90;;;;;;5075128;28;20176;-77
2021/06/21 03:23:01;;;;;;;1999.90;999.90;;;17.60;99.90;;;;;;5074664;28;20205;-77
2021/06/21 03:25:32;;;;;;;1999.90;999.90;;;17.60;99.90;;;;;;5075030;28;20172;-77
2021/06/21 03:28:05;;;;;;;1999.90;999.90;;;17.50;99.90;;;;;;5075208;28;20211;-77
2021/06/21 03:30:31;;;;;;;1999.90;999.90;;;17.50;99.90;;;;;;5074517;28;20169;-77
2021/06/21 03:32:57;;;;;;;1999.90;999.90;;;17.40;99.90;;;;;;5056398;28;20200;-77
2021/06/21 03:35:23;;;;;;;1999.90;999.90;;;17.30;99.90;;;;;;5057171;28;20176;-77
2021/06/21 03:37:49;;;;;;;1999.90;999.90;;;17.20;99.90;;;;;;5074421;28;20190;-79
2021/06/21 03:40:16;;;;;;;1999.90;999.90;;;17.30;99.90;;;;;;5074633;28;20207;-77
2021/06/21 03:42:42;;;;;;;1999.90;999.90;;;17.20;99.90;;;;;;5076492;28;20292;-77
2021/06/21 03:45:10;;;;;;;1999.90;999.90;;;17.20;99.90;;;;;;5043131;28;20175;-77
2021/06/21 03:47:36;;;;;;;1999.90;999.90;;;17.40;99.90;;;;;;5057372;28;20191;-78
2021/06/21 03:50:04;;;;;;;1999.90;999.90;;;17.40;99.90;;;;;;5061350;28;20263;-77
2021/06/21 03:52:30;;;;;;;1999.90;999.90;;;17.50;99.90;;;;;;5078048;28;20197;-77
2021/06/21 03:55:16;;;;;;;1999.90;999.90;;;17.50;99.90;;;;;;5077314;28;20285;-77
2021/06/21 03:57:46;;;;;;;1999.90;999.90;;;17.60;99.90;;;;;;5076455;28;20191;-78
2021/06/21 04:00:20;;;;;;;1999.90;999.90;;;17.50;99.90;;;;;;5077403;28;20182;-76
2021/06/21 04:02:46;;;;;;;1999.90;999.90;;;17.40;99.90;;;;;;5077742;28;20571;-75
2021/06/21 04:05:13;;;;;;;1999.90;999.90;;;17.50;99.90;;;;;;5047414;28;20267;-76
2021/06/21 04:07:39;;;;;;;1999.90;999.90;;;17.50;99.90;;;;;;5063927;28;20194;-76
2021/06/21 04:10:11;;;;;;;1999.90;999.90;;;17.50;99.90;;;;;;5066605;28;20176;-76
2021/06/21 04:12:37;;;;;;;1999.90;999.90;;;17.50;99.90;;;;;;5078536;28;20214;-76
2021/06/21 04:15:08;;;;;;;1999.90;999.90;;;17.50;99.90;;;;;;5077234;28;20179;-76
2021/06/21 04:17:36;;;;;;;1999.90;999.90;;;17.40;99.90;;;;;;5060398;28;20167;-76
2021/06/21 04:20:03;;;;;;;1999.90;999.90;;;17.40;99.90;;;;;;5079309;28;20173;-75
2021/06/21 04:22:29;;;;;;;1999.90;999.90;;;17.40;99.90;;;;;;5076855;28;20215;-76
2021/06/21 04:24:55;;;;;;;1999.90;999.90;;;17.40;99.90;;;;;;5058477;28;20191;-76
2021/06/21 04:27:20;;;;;;;1999.90;999.90;;;17.40;99.90;;;;;;5059788;28;20168;-76
2021/06/21 04:29:46;;;;;;;1999.90;999.90;;;17.40;99.90;;;;;;5041248;28;20214;-76
2021/06/21 04:32:12;;;;;;;1999.90;999.90;;;17.50;99.90;;;;;;5076244;28;20341;-76
2021/06/21 04:34:37;;;;;;;1999.90;999.90;;;17.50;99.90;;;;;;5059869;28;20267;-76
2021/06/21 04:37:04;;;;;;;1999.90;999.90;;;17.60;99.90;;;;;;5060238;28;20180;-75
2021/06/21 04:39:30;;;;;;;1999.90;999.90;;;17.60;99.90;;;;;;5055228;28;20253;-75
2021/06/21 04:41:55;;;;;;;1999.90;999.90;;;17.70;99.90;;;;;;5079313;28;20602;-76
2021/06/21 04:44:21;;;;;;;1999.90;999.90;;;17.80;99.90;;;;;;5079616;28;20230;-76
2021/06/21 04:46:47;;;;;;;1999.90;999.90;;;17.90;99.90;;;;;;5078326;28;20164;-76
2021/06/21 04:49:13;;;;;;;1999.90;999.90;;;18.00;99.90;;;;;;5078064;28;20678;-76
2021/06/21 04:51:41;;;;;;;1999.90;999.90;;;17.90;99.90;;;;;;5076923;28;20181;-76
2021/06/21 04:54:08;;;;;;;1999.90;999.90;;;18.00;99.90;;;;;;5075493;28;20277;-76
2021/06/21 04:56:35;;;;;;;1999.90;999.90;;;18.00;99.90;;;;;;5058802;28;20195;-76
2021/06/21 04:59:03;;;;;;;1999.90;999.90;;;18.10;99.90;;;;;;5076593;28;20996;-76
2021/06/21 05:01:29;;;;;;;1999.90;999.90;;;18.10;99.90;;;;;;5061427;28;20196;-81
2021/06/21 05:03:55;;;;;;;1999.90;999.90;;;18.00;99.90;;;;;;5077766;28;20192;-82
2021/06/21 05:06:21;;;;;;;1999.90;999.90;;;18.10;99.90;;;;;;5060585;28;20196;-82
2021/06/21 05:08:46;;;;;;;1999.90;999.90;;;18.20;99.90;;;;;;5078319;28;20169;-82
2021/06/21 05:11:12;;;;;;;1999.90;999.90;;;18.20;99.90;;;;;;5079190;28;20181;-81
2021/06/21 05:13:38;;;;;;;1999.90;999.90;;;18.30;99.90;;;;;;5079190;28;20204;-82
2021/06/21 05:16:05;;;;;;;1999.90;999.90;;;18.40;99.90;;;;;;5078332;28;20205;-81
2021/06/21 05:18:31;;;;;;;1999.90;999.90;;;18.40;99.90;;;;;;5060572;28;20184;-81
2021/06/21 05:20:57;;;;;;;1999.90;999.90;;;18.40;99.90;;;;;;5078003;28;20185;-81
2021/06/21 05:23:22;;;;;;;1999.90;999.90;;;18.30;99.90;;;;;;5077369;28;20222;-81
2021/06/21 05:25:48;;;;;;;1999.90;999.90;;;18.40;99.90;;;;;;5077862;28;20172;-81
2021/06/21 05:28:14;;;;;;;1999.90;999.90;;;18.40;99.90;;;;;;5078112;28;20182;-80
2021/06/21 05:30:39;;;;;;;1999.90;999.90;;;18.40;99.90;;;;;;5077790;28;20659;-80
2021/06/21 05:33:05;;;;;;;1999.90;999.90;;;18.50;99.90;;;;;;5077404;28;20279;-80
2021/06/21 05:35:30;;;;;;;1999.90;999.90;;;18.50;99.90;;;;;;5077551;28;20670;-80
2021/06/21 05:37:56;;;;;;;1999.90;999.90;;;18.60;99.90;;;;;;5077830;28;20187;-80
2021/06/21 05:40:22;;;;;;;1999.90;999.90;;;18.70;99.90;;;;;;5077354;28;20177;-80
2021/06/21 05:42:48;;;;;;;1999.90;999.90;;;18.80;99.90;;;;;;5058626;28;20283;-81
2021/06/21 05:45:16;;;;;;;1999.90;999.90;;;18.90;99.90;;;;;;5057663;28;20189;-81
2021/06/21 05:47:42;;;;;;;1999.90;999.90;;;19.00;99.90;;;;;;5075326;28;20172;-82
2021/06/21 05:50:08;;;;;;;1999.90;999.90;;;19.20;99.90;;;;;;5076606;28;20247;-80
2021/06/21 05:52:34;;;;;;;1999.90;999.90;;;19.20;99.90;;;;;;5058911;28;20254;-81
2021/06/21 05:55:00;;;;;;;1999.90;999.90;;;19.00;99.90;;;;;;5059274;28;20177;-80
2021/06/21 05:57:29;;;;;;;1999.90;999.90;;;19.00;99.90;;;;;;5077677;28;20231;-81
2021/06/21 05:59:55;;;;;;;1999.90;999.90;;;19.00;99.90;;;;;;5077420;28;20519;-81
2021/06/21 06:02:22;;;;;;;1999.90;999.90;;;19.00;99.90;;;;;;5077096;28;20197;-81
2021/06/21 06:04:48;;;;;;;1999.90;999.90;;;19.10;99.90;;;;;;5076822;28;20177;-80
2021/06/21 06:07:13;;;;;;;1999.90;999.90;;;18.90;99.90;;;;;;5077274;28;20165;-81
2021/06/21 06:09:39;;;;;;;1999.90;999.90;;;19.00;99.90;;;;;;5076944;28;20169;-81
2021/06/21 06:12:05;;;;;;;1999.90;999.90;;;19.10;99.90;;;;;;5076676;28;20212;-81
2021/06/21 06:14:32;;;;;;;1999.90;999.90;;;19.10;99.90;;;;;;5058874;28;20173;-81
2021/06/21 06:16:58;;;;;;;1999.90;999.90;;;19.20;99.90;;;;;;5076863;28;20176;-80
2021/06/21 06:19:25;;;;;;;1999.90;999.90;;;19.20;99.90;;;;;;5077056;28;20166;-80
2021/06/21 06:21:51;;;;;;;1999.90;999.90;;;19.30;99.90;;;;;;5076823;28;20237;-80
2021/06/21 06:24:17;;;;;;;1999.90;999.90;;;19.40;99.90;;;;;;5076443;28;20585;-80
2021/06/21 06:26:43;;;;;;;1999.90;999.90;;;19.40;99.90;;;;;;5076344;28;20192;-80
2021/06/21 06:29:19;;;;;;;1999.90;999.90;;;19.50;99.90;;;;;;5076197;28;20659;-80
2021/06/21 06:31:47;;;;;;;1999.90;999.90;;;19.60;99.90;;;;;;5058282;28;20640;-80
2021/06/21 06:34:14;;;;;;;1999.90;999.90;;;19.70;99.90;;;;;;5075798;28;20173;-81
2021/06/21 06:36:40;;;;;;;1999.90;999.90;;;19.80;99.90;;;;;;5076359;28;20654;-81
2021/06/21 06:39:07;;;;;;;1999.90;999.90;;;19.80;99.90;;;;;;5058274;28;20173;-80
2021/06/21 06:41:34;;;;;;;1999.90;999.90;;;19.80;99.90;;;;;;5076025;28;20200;-80
2021/06/21 06:44:00;;;;;;;1999.90;999.90;;;19.80;99.90;;;;;;5075950;28;20667;-81
2021/06/21 06:46:27;;;;;;;1999.90;999.90;;;19.60;99.90;;;;;;5058254;28;20172;-81
2021/06/21 06:48:52;;;;;;;1999.90;999.90;;;19.70;99.90;;;;;;5076114;28;20165;-81
2021/06/21 06:51:19;;;;;;;1999.90;999.90;;;19.80;99.90;;;;;;5075958;28;20540;-81
2021/06/21 06:53:52;;;;;;;1999.90;999.90;;;19.90;99.90;;;;;;5057484;28;20197;-81
2021/06/21 06:59:03;;;;;;;1999.90;999.90;;;19.90;99.90;;;;;;5063602;28;20172;-81
2021/06/21 07:01:29;;;;;;;1999.90;999.90;;;20.00;99.90;;;;;;5075956;28;20180;-80
2021/06/21 07:03:55;;;;;;;1999.90;999.90;;;20.20;99.90;;;;;;5076012;28;20196;-80
2021/06/21 07:06:20;;;;;;;1999.90;999.90;;;20.30;99.90;;;;;;5076234;28;20169;-80
2021/06/21 07:08:46;;;;;;;1999.90;999.90;;;20.30;99.90;;;;;;5075552;28;20294;-80
2021/06/21 07:11:13;;;;;;;1999.90;999.90;;;20.40;99.90;;;;;;5057559;28;20176;-81
2021/06/21 07:13:39;;;;;;;1999.90;999.90;;;20.50;99.90;;;;;;5075498;28;20234;-81
2021/06/21 07:16:05;;;;;;;1999.90;999.90;;;20.40;99.90;;;;;;5075908;28;20239;-81
2021/06/21 07:18:31;;;;;;;1999.90;999.90;;;20.10;99.90;;;;;;5076259;28;20165;-81
2021/06/21 07:20:57;;;;;;;1999.90;999.90;;;20.00;99.90;;;;;;5075924;28;20209;-80
2021/06/21 07:23:22;;;;;;;1999.90;999.90;;;20.00;99.90;;;;;;5098847;22;20624;-83
2021/06/21 07:25:48;;;;;;;1999.90;999.90;;;20.30;99.90;;;;;;5042638;28;20257;-83
2021/06/21 07:28:16;;;;;;;1999.90;999.90;;;20.30;99.90;;;;;;5061305;28;20199;-83
2021/06/21 07:30:43;;;;;;;1999.90;999.90;;;20.30;99.90;;;;;;5043522;28;20177;-84
2021/06/21 07:33:09;;;;;;;1999.90;999.90;;;20.40;99.90;;;;;;5044084;28;20590;-83
2021/06/21 07:35:35;;;;;;;1999.90;999.90;;;20.40;99.90;;;;;;5043558;28;20643;-84
2021/06/21 07:38:01;;;;;;;1999.90;999.90;;;20.50;99.90;;;;;;5043367;28;20178;-84
2021/06/21 07:40:27;;;;;;;1999.90;999.90;;;20.60;99.90;;;;;;5043481;28;20174;-83
2021/06/21 07:42:52;;;;;;;1999.90;999.90;;;20.70;99.90;;;;;;5060248;28;20217;-84
2021/06/21 07:45:18;;;;;;;1999.90;999.90;;;20.90;99.90;;;;;;5042423;28;20200;-84
2021/06/21 07:47:44;;;;;;;1999.90;999.90;;;20.90;99.90;;;;;;5057380;28;20175;-84
2021/06/21 07:50:10;;;;;;;1999.90;999.90;;;20.80;99.90;;;;;;5059125;28;20637;-83
2021/06/21 07:52:36;;;;;;;1999.90;999.90;;;20.80;99.90;;;;;;5060018;28;20197;-84
2021/06/21 07:55:02;;;;;;;1999.90;999.90;;;20.90;99.90;;;;;;5060962;28;20265;-84
2021/06/21 07:57:28;;;;;;;1999.90;999.90;;;20.90;99.90;;;;;;5042642;28;20565;-84
2021/06/21 07:59:55;;;;;;;1999.90;999.90;;;21.10;99.90;;;;;;5059806;28;20174;-83
2021/06/21 08:02:21;;;;;;;1999.90;999.90;;;21.50;99.90;;;;;;5059930;28;20232;-83
2021/06/21 08:04:47;;;;;;;1999.90;999.90;;;21.80;99.90;;;;;;5059782;28;20166;-84
2021/06/21 08:07:17;;;;;;;1999.90;999.90;;;21.70;99.90;;;;;;5041754;28;20203;-84
2021/06/21 08:09:42;;;;;;;1999.90;999.90;;;21.50;99.90;;;;;;5060254;28;20536;-84
2021/06/21 08:12:09;;;;;;;1999.90;999.90;;;21.60;99.90;;;;;;5059201;28;20181;-84
2021/06/21 08:14:35;;;;;;;1999.90;999.90;;;21.60;99.90;;;;;;5041873;28;20269;-83
2021/06/21 08:17:00;;;;;;;1999.90;999.90;;;21.70;99.90;;;;;;5060833;28;20198;-84
2021/06/21 08:19:26;;;;;;;1999.90;999.90;;;21.90;99.90;;;;;;5059586;28;20543;-84
2021/06/21 08:21:52;;;;;;;1999.90;999.90;;;22.00;99.90;;;;;;5059771;28;20249;-84
2021/06/21 08:24:17;;;;;;;1999.90;999.90;;;22.10;99.90;;;;;;5041855;28;20209;-83
2021/06/21 08:26:43;;;;;;;1999.90;999.90;;;22.30;99.90;;;;;;5042467;28;20177;-84
2021/06/21 08:29:09;;;;;;;1999.90;999.90;;;22.40;99.90;;;;;;5044534;28;20174;-84
2021/06/21 08:31:34;;;;;;;1999.90;999.90;;;22.40;99.90;;;;;;5063974;28;20169;-84
2021/06/21 08:34:00;;;;;;;1999.90;999.90;;;22.50;99.90;;;;;;5063889;28;20192;-84
2021/06/21 08:36:26;;;;;;;1999.90;999.90;;;22.60;99.90;;;;;;5063920;28;20166;-84
2021/06/21 08:38:52;;;;;;;1999.90;999.90;;;22.50;99.90;;;;;;5046200;28;20169;-84
2021/06/21 08:41:20;;;;;;;1999.90;999.90;;;22.30;99.90;;;;;;5064170;28;20174;-84
2021/06/21 08:43:47;;;;;;;1999.90;999.90;;;22.60;99.90;;;;;;5063955;28;20198;-84
2021/06/21 08:46:15;;;;;;;1999.90;999.90;;;22.60;99.90;;;;;;5046198;28;20220;-83
2021/06/21 08:48:42;;;;;;;1999.90;999.90;;;22.70;99.90;;;;;;5063058;28;20162;-84
2021/06/21 08:51:08;;;;;;;1999.90;999.90;;;22.90;99.90;;;;;;5064068;28;20170;-84
2021/06/21 08:53:34;;;;;;;1999.90;999.90;;;23.10;99.90;;;;;;5063193;28;20220;-84
2021/06/21 08:55:59;;;;;;;1999.90;999.90;;;23.10;99.90;;;;;;5044905;28;20177;-84
2021/06/21 08:58:25;;;;;;;1999.90;999.90;;;23.10;99.90;;;;;;5063044;28;20177;-84
2021/06/21 09:00:50;;;;;;;1999.90;999.90;;;23.00;99.90;;;;;;5063244;28;20174;-84
2021/06/21 09:03:17;;;;;;;1999.90;999.90;;;23.10;99.90;;;;;;5062439;28;20198;-84
2021/06/21 09:05:43;;;;;;;1999.90;999.90;;;23.40;99.90;;;;;;5062692;28;20176;-83
2021/06/21 09:08:09;;;;;;;1999.90;999.90;;;23.50;99.90;;;;;;5062760;28;20174;-84
2021/06/21 09:10:38;;;;;;;1999.90;999.90;;;23.20;99.90;;;;;;5063338;28;20709;-84
2021/06/21 09:13:13;;;;;;;1999.90;999.90;;;23.10;99.90;;;;;;5044874;28;20281;-84
2021/06/21 09:15:44;;;;;;;1999.90;999.90;;;23.30;99.90;;;;;;5045190;28;20180;-84
2021/06/21 09:18:25;;;;;;;1999.90;999.90;;;23.60;99.90;;;;;;5062845;28;20180;-83
2021/06/21 09:21:16;;;;;;;1999.90;999.90;;;23.80;99.90;;;;;;5062927;28;20223;-86
2021/06/21 09:23:42;;;;;;;1999.90;999.90;;;23.90;99.90;;;;;;5062358;28;20259;-83
2021/06/21 09:26:17;;;;;;;1999.90;999.90;;;24.00;99.90;;;;;;5062770;28;20227;-84
2021/06/21 09:28:44;;;;;;;1999.90;999.90;;;23.90;99.90;;;;;;5063155;28;20196;-84
2021/06/21 09:31:10;;;;;;;1999.90;999.90;;;23.60;99.90;;;;;;5044977;28;20543;-84
2021/06/21 09:33:36;;;;;;;1999.90;999.90;;;23.60;99.90;;;;;;5061581;28;20221;-84
2021/06/21 09:36:03;;;;;;;1999.90;999.90;;;23.90;99.90;;;;;;5044730;28;20202;-84
2021/06/21 09:38:28;;;;;;;1999.90;999.90;;;24.20;99.90;;;;;;5044292;28;20178;-84
2021/06/21 09:40:57;;;;;;;1999.90;999.90;;;24.30;99.90;;;;;;5061263;28;20221;-84
2021/06/21 09:43:23;;;;;;;1999.90;999.90;;;24.10;99.90;;;;;;5062127;28;20254;-84
2021/06/21 09:46:04;;;;;;;1999.90;999.90;;;24.20;99.90;;;;;;5059148;28;20260;-84
2021/06/21 09:48:48;;;;;;;1999.90;999.90;;;24.40;99.90;;;;;;5062300;28;20173;-84
2021/06/21 09:51:27;;;;;;;1999.90;999.90;;;24.60;99.90;;;;;;5044463;28;20189;-84
2021/06/21 09:54:11;;;;;;;1999.90;999.90;;;24.90;99.90;;;;;;5036630;28;20608;-84
2021/06/21 09:56:48;;;;;;;1999.90;999.90;;;24.90;99.90;;;;;;5062453;28;20193;-84
2021/06/21 09:59:33;;;;;;;1999.90;999.90;;;25.00;99.90;;;;;;5062464;28;20177;-84
2021/06/21 10:02:06;;;;;;;1999.90;999.90;;;24.90;99.90;;;;;;5063332;28;20212;-84
2021/06/21 10:04:33;;;;;;;1999.90;999.90;;;25.00;99.90;;;;;;5044358;28;20174;-84
2021/06/21 10:06:58;;;;;;;1999.90;999.90;;;25.20;99.90;;;;;;5043531;28;20566;-76
2021/06/21 10:09:25;;;;;;;1999.90;999.90;;;25.30;99.90;;;;;;5053939;28;20181;-77
2021/06/21 10:11:51;;;;;;;1999.90;999.90;;;25.20;99.90;;;;;;5053685;28;20182;-77
2021/06/21 10:14:19;;;;;;;1999.90;999.90;;;25.40;99.90;;;;;;5036150;28;20213;-76
2021/06/21 10:16:47;;;;;;;1999.90;999.90;;;25.60;99.90;;;;;;5032800;28;20174;-76
2021/06/21 10:19:13;;;;;;;1999.90;999.90;;;25.60;99.90;;;;;;5043015;28;20182;-77
2021/06/21 10:21:41;;;;;;;1999.90;999.90;;;25.70;99.90;;;;;;5048425;28;20184;-77
2021/06/21 10:24:08;;;;;;;1999.90;999.90;;;25.60;99.90;;;;;;5052095;28;20387;-76
2021/06/21 10:26:36;;;;;;;1999.90;999.90;;;25.80;99.90;;;;;;5036024;28;20196;-77
2021/06/21 10:29:04;;;;;;;1999.90;999.90;;;25.90;99.90;;;;;;5053960;28;20174;-77
2021/06/21 10:31:31;;;;;;;1999.90;999.90;;;26.20;99.90;;;;;;5053867;28;20165;-77
2021/06/21 10:34:02;;;;;;;1999.90;999.90;;;26.30;99.90;;;;;;5053195;28;20600;-77
2021/06/21 10:36:45;;;;;;;1999.90;999.90;;;26.30;99.90;;;;;;5053853;28;20202;-77
2021/06/21 10:39:12;;;;;;;1999.90;999.90;;;26.40;99.90;;;;;;5053728;28;20176;-76
2021/06/21 10:41:38;;;;;;;1999.90;999.90;;;26.10;99.90;;;;;;5053899;28;20166;-77
2021/06/21 10:44:04;;;;;;;1999.90;999.90;;;26.20;99.90;;;;;;5039840;28;20199;-77
2021/06/21 10:46:32;;;;;;;1999.90;999.90;;;26.30;99.90;;;;;;5048810;28;20535;-76
2021/06/21 10:48:57;;;;;;;1999.90;999.90;;;26.30;99.90;;;;;;5032575;28;20178;-76
2021/06/21 10:51:41;;;;;;;1999.90;999.90;;;26.30;99.90;;;;;;5049781;28;20514;-76
2021/06/21 10:54:34;;;;;;;1999.90;999.90;;;26.50;99.90;;;;;;5033036;28;20209;-77
2021/06/21 10:56:59;;;;;;;1999.90;999.90;;;26.60;99.90;;;;;;5046582;28;20556;-77
2021/06/21 10:59:26;;;;;;;1999.90;999.90;;;26.70;99.90;;;;;;5033500;28;20166;-77
2021/06/21 11:01:54;;;;;;;1999.90;999.90;;;26.40;99.90;;;;;;5049418;28;20189;-76
2021/06/21 11:04:32;;;;;;;1999.90;999.90;;;26.30;99.90;;;;;;5028918;28;20198;-76
2021/06/21 11:07:15;;;;;;;1999.90;999.90;;;26.20;99.90;;;;;;5049015;28;20617;-76
2021/06/21 11:09:55;;;;;;;1999.90;999.90;;;26.40;99.90;;;;;;5046068;28;20640;-77
2021/06/21 11:12:21;;;;;;;1999.90;999.90;;;26.60;99.90;;;;;;5031578;28;21049;-77
2021/06/21 11:15:08;;;;;;;1999.90;999.90;;;26.90;99.90;;;;;;5046722;28;20261;-75
2021/06/21 11:17:45;;;;;;;1999.90;999.90;;;27.00;99.90;;;;;;5044300;28;20221;-76
2021/06/21 11:20:33;;;;;;;1999.90;999.90;;;27.20;99.90;;;;;;5046947;28;20173;-76
2021/06/21 11:23:01;;;;;;;1999.90;999.90;;;27.20;99.90;;;;;;5045680;28;20213;-77
2021/06/21 11:25:33;;;;;;;1999.90;999.90;;;27.30;99.90;;;;;;5033663;28;20180;-76
2021/06/21 11:28:00;;;;;;;1999.90;999.90;;;27.00;99.90;;;;;;5042720;28;20174;-77
2021/06/21 11:30:40;;;;;;;1999.90;999.90;;;27.10;99.90;;;;;;5048400;28;20633;-78
2021/06/21 11:33:10;;;;;;;1999.90;999.90;;;27.10;99.90;;;;;;5048533;28;20569;-76
2021/06/21 11:35:56;;;;;;;1999.90;999.90;;;27.30;99.90;;;;;;5026791;28;20547;-76
2021/06/21 11:38:31;;;;;;;1999.90;999.90;;;27.50;99.90;;;;;;5045143;28;20174;-77
2021/06/21 11:41:24;;;;;;;1999.90;999.90;;;27.80;99.90;;;;;;5030920;28;20652;-77
2021/06/21 11:43:55;;;;;;;1999.90;999.90;;;27.90;99.90;;;;;;5043668;28;20304;-77
2021/06/21 11:46:38;;;;;;;1999.90;999.90;;;27.70;99.90;;;;;;5033314;28;20162;-77
2021/06/21 11:49:12;;;;;;;1999.90;999.90;;;27.60;99.90;;;;;;5045658;28;20227;-77
2021/06/21 11:51:38;;;;;;;1999.90;999.90;;;27.20;99.90;;;;;;5047568;28;20201;-76
2021/06/21 11:54:05;;;;;;;1999.90;999.90;;;27.20;99.90;;;;;;5046162;28;20228;-77
2021/06/21 11:56:31;;;;;;;1999.90;999.90;;;27.20;99.90;;;;;;5048390;28;20724;-77
2021/06/21 11:58:58;;;;;;;1999.90;999.90;;;27.60;99.90;;;;;;5040713;28;20170;-76
2021/06/21 12:01:28;;;;;;;1999.90;999.90;;;27.60;99.90;;;;;;5047754;28;20174;-76
2021/06/21 12:04:03;;;;;;;1999.90;999.90;;;27.70;99.90;;;;;;5048092;28;20233;-77
2021/06/21 12:06:30;;;;;;;1999.90;999.90;;;27.90;99.90;;;;;;5053465;28;20656;-77
2021/06/21 12:08:57;;;;;;;1999.90;999.90;;;28.10;99.90;;;;;;5055083;28;20570;-77